createdAt,value
2019-02-11T00:00:02.050Z,75.14
2019-02-11T00:02:34.216Z,75.83
2019-02-11T00:05:05.418Z,76.40
2019-02-11T00:07:36.349Z,77.55
2019-02-11T00:10:06.864Z,77.92
2019-02-11T00:12:37.354Z,77.88
2019-02-11T00:15:08.016Z,78.21
2019-02-11T00:17:38.563Z,78.56
2019-02-11T00:20:09.565Z,78.80
2019-02-11T00:22:39.881Z,79.66
2019-02-11T00:25:11.535Z,79.75
2019-02-11T00:27:42.302Z,79.89
2019-02-11T00:30:12.765Z,80.28
2019-02-11T00:32:43.410Z,80.08
2019-02-11T00:35:13.762Z,80.73
2019-02-11T00:37:44.298Z,80.63
2019-02-11T00:40:14.790Z,80.63
2019-02-11T00:42:45.377Z,80.53
2019-02-11T00:45:15.931Z,80.43
2019-02-11T00:47:46.901Z,80.63
2019-02-11T00:50:17.669Z,81.15
2019-02-11T00:52:48.363Z,80.85
2019-02-11T00:55:18.910Z,81.02
2019-02-11T00:57:49.363Z,81.52
2019-02-11T01:00:19.894Z,81.54
2019-02-11T01:02:50.764Z,81.66
2019-02-11T01:05:21.399Z,82.00
2019-02-11T01:07:51.817Z,83.27
2019-02-11T01:10:22.839Z,84.28
2019-02-11T01:12:57.360Z,84.02
2019-02-11T01:15:27.979Z,84.43
2019-02-11T01:17:59.958Z,85.11
2019-02-11T01:20:31.831Z,86.20
2019-02-11T01:23:02.748Z,86.66
2019-02-11T01:25:33.995Z,87.83
2019-02-11T01:28:04.984Z,88.94
2019-02-11T01:30:35.513Z,89.26
2019-02-11T01:33:06.092Z,89.49
2019-02-11T01:35:36.750Z,89.70
2019-02-11T01:38:08.158Z,89.61
2019-02-11T01:40:38.805Z,89.83
2019-02-11T01:43:09.395Z,89.89
2019-02-11T01:45:41.093Z,89.57
2019-02-11T01:48:11.739Z,89.85
2019-02-11T01:50:42.080Z,89.71
2019-02-11T01:53:12.692Z,89.81
2019-02-11T01:55:43.388Z,89.79
2019-02-11T01:58:14.230Z,89.88
2019-02-11T02:00:44.771Z,90.10
2019-02-11T02:03:15.438Z,90.24
2019-02-11T02:05:46.524Z,89.79
2019-02-11T02:08:18.748Z,89.33
2019-02-11T02:10:50.128Z,89.24
2019-02-11T02:13:20.752Z,89.28
2019-02-11T02:15:51.648Z,89.19
2019-02-11T02:18:23.184Z,89.25
2019-02-11T02:20:53.526Z,89.30
2019-02-11T02:23:24.013Z,88.94
2019-02-11T02:25:54.663Z,89.03
2019-02-11T02:28:25.180Z,88.87
2019-02-11T02:30:56.216Z,89.04
2019-02-11T02:33:26.946Z,89.36
2019-02-11T02:35:57.744Z,89.48
2019-02-11T02:38:28.371Z,89.30
2019-02-11T02:40:59.085Z,89.12
2019-02-11T02:43:29.548Z,89.05
2019-02-11T02:46:02.586Z,89.22
2019-02-11T02:48:33.021Z,89.46
2019-02-11T02:51:05.223Z,89.77
2019-02-11T02:53:35.666Z,89.80
2019-02-11T02:56:06.182Z,90.04
2019-02-11T02:58:36.891Z,90.31
2019-02-11T03:01:08.363Z,90.61
2019-02-11T03:03:38.835Z,90.75
2019-02-11T03:06:09.667Z,90.75
2019-02-11T03:08:40.294Z,90.67
2019-02-11T03:11:10.807Z,90.45
2019-02-11T03:13:41.430Z,90.30
2019-02-11T03:16:11.858Z,90.15
2019-02-11T03:18:44.555Z,90.17
2019-02-11T03:21:15.109Z,89.87
2019-02-11T03:23:45.951Z,89.61
2019-02-11T03:26:16.528Z,89.53
2019-02-11T03:28:47.347Z,89.38
2019-02-11T03:31:19.304Z,89.48
2019-02-11T03:33:49.719Z,89.51
2019-02-11T03:36:20.300Z,89.54
2019-02-11T03:38:52.276Z,89.57
2019-02-11T03:41:22.917Z,89.41
2019-02-11T03:43:53.312Z,89.13
2019-02-11T03:46:23.813Z,88.90
2019-02-11T03:48:54.828Z,88.93
2019-02-11T03:51:25.329Z,88.76
2019-02-11T03:53:56.066Z,88.57
2019-02-11T03:56:26.395Z,88.25
2019-02-11T03:58:57.278Z,88.03
2019-02-11T04:01:28.614Z,87.73
2019-02-11T04:04:00.024Z,87.59
2019-02-11T04:06:30.647Z,87.17
2019-02-11T04:09:01.340Z,86.61
2019-02-11T04:11:32.999Z,86.42
2019-02-11T04:14:04.092Z,86.35
2019-02-11T04:16:34.500Z,86.12
2019-02-11T04:19:04.994Z,85.69
2019-02-11T04:21:35.625Z,85.58
2019-02-11T04:24:06.181Z,85.25
2019-02-11T04:26:36.894Z,85.00
2019-02-11T04:29:07.280Z,85.04
2019-02-11T04:31:37.666Z,84.78
2019-02-11T04:34:10.392Z,84.55
2019-02-11T04:36:41.914Z,84.02
2019-02-11T04:39:13.818Z,83.89
2019-02-11T04:41:44.208Z,83.51
2019-02-11T04:44:14.832Z,83.58
2019-02-11T04:46:46.778Z,83.06
2019-02-11T04:49:17.243Z,82.86
2019-02-11T04:51:47.786Z,82.61
2019-02-11T04:54:18.269Z,82.33
2019-02-11T04:56:48.974Z,82.16
2019-02-11T04:59:19.578Z,82.25
2019-02-11T05:01:50.123Z,81.94
2019-02-11T05:04:20.792Z,81.65
2019-02-11T05:06:51.307Z,81.55
2019-02-11T05:09:21.966Z,81.69
2019-02-11T05:11:52.663Z,81.24
2019-02-11T05:14:23.374Z,80.42
2019-02-11T05:16:54.037Z,80.75
2019-02-11T05:19:25.046Z,79.97
2019-02-11T05:21:56.154Z,80.14
2019-02-11T05:24:26.616Z,80.00
2019-02-11T05:26:57.353Z,79.54
2019-02-11T05:29:30.348Z,79.58
2019-02-11T05:32:01.245Z,78.92
2019-02-11T05:34:31.914Z,79.08
2019-02-11T05:37:02.435Z,78.34
2019-02-11T05:39:33.346Z,78.15
2019-02-11T05:42:03.935Z,77.54
2019-02-11T05:44:34.280Z,77.38
2019-02-11T05:47:04.979Z,77.43
2019-02-11T05:49:35.338Z,77.20
2019-02-11T05:52:06.094Z,76.90
2019-02-11T05:54:36.575Z,76.57
2019-02-11T05:57:07.284Z,75.66
2019-02-11T05:59:37.861Z,75.98
2019-02-11T06:02:08.309Z,75.25
2019-02-11T06:04:38.719Z,75.30
2019-02-11T06:07:09.709Z,74.44
2019-02-11T06:09:40.402Z,74.30
2019-02-11T06:12:10.794Z,74.22
2019-02-11T06:14:41.167Z,73.92
2019-02-11T06:17:11.528Z,74.08
2019-02-11T06:19:43.996Z,73.80
2019-02-11T06:22:15.085Z,73.73
2019-02-11T06:24:48.465Z,73.71
2019-02-11T06:27:20.555Z,73.29
2019-02-11T06:29:50.909Z,73.40
2019-02-11T06:32:23.369Z,73.25
2019-02-11T06:34:55.546Z,73.69
2019-02-11T06:37:26.706Z,73.98
2019-02-11T06:39:59.104Z,74.02
2019-02-11T06:42:29.745Z,74.15
2019-02-11T06:45:00.443Z,74.22
2019-02-11T06:47:30.831Z,74.07
2019-02-11T06:50:01.241Z,73.52
2019-02-11T06:52:31.817Z,73.74
2019-02-11T06:55:02.631Z,73.80
2019-02-11T06:57:33.168Z,73.67
2019-02-11T07:00:03.955Z,73.48
2019-02-11T07:02:34.524Z,73.44
2019-02-11T07:05:06.309Z,73.01
2019-02-11T07:07:37.059Z,72.49
2019-02-11T07:10:08.736Z,72.46
2019-02-11T07:12:39.191Z,71.91
2019-02-11T07:15:11.277Z,72.20
2019-02-11T07:17:42.003Z,71.77
2019-02-11T07:20:13.148Z,71.89
2019-02-11T07:22:44.999Z,71.62
2019-02-11T07:25:16.589Z,71.82
2019-02-11T07:27:47.420Z,71.46
2019-02-11T07:30:17.953Z,71.19
2019-02-11T07:32:48.394Z,70.71
2019-02-11T07:35:18.779Z,71.07
2019-02-11T07:37:49.296Z,70.70
2019-02-11T07:40:20.057Z,70.62
2019-02-11T07:43:02.574Z,71.01
2019-02-11T07:45:41.611Z,70.80
2019-02-11T07:48:12.142Z,70.30
2019-02-11T07:50:42.515Z,69.83
2019-02-11T07:53:12.867Z,70.02
2019-02-11T07:55:43.400Z,69.91
2019-02-11T07:58:13.836Z,69.67
2019-02-11T08:00:44.544Z,69.35
2019-02-11T08:03:15.267Z,69.14
2019-02-11T08:05:48.136Z,69.00
2019-02-11T08:08:18.510Z,69.01
2019-02-11T08:10:49.056Z,68.92
2019-02-11T08:13:19.592Z,68.89
2019-02-11T08:15:49.964Z,68.54
2019-02-11T08:18:20.482Z,68.68
2019-02-11T08:20:50.966Z,68.42
2019-02-11T08:23:21.536Z,68.26
2019-02-11T08:25:52.083Z,68.37
2019-02-11T08:28:22.579Z,68.07
2019-02-11T08:30:54.316Z,67.95
2019-02-11T08:33:28.050Z,67.80
2019-02-11T08:35:58.654Z,67.86
2019-02-11T08:38:29.004Z,67.50
2019-02-11T08:41:00.502Z,67.55
2019-02-11T08:43:31.079Z,67.45
2019-02-11T08:46:01.419Z,67.33
2019-02-11T08:48:31.977Z,67.07
2019-02-11T08:51:02.436Z,66.85
2019-02-11T08:53:34.490Z,66.75
2019-02-11T08:56:05.082Z,66.82
2019-02-11T08:58:37.211Z,66.32
2019-02-11T09:01:07.779Z,66.52
2019-02-11T09:03:38.563Z,66.05
2019-02-11T09:06:09.305Z,65.92
2019-02-11T09:08:39.731Z,66.31
2019-02-11T09:11:10.213Z,66.43
2019-02-11T09:13:41.054Z,65.77
2019-02-11T09:16:12.305Z,65.76
2019-02-11T09:18:42.988Z,65.90
2019-02-11T09:21:13.682Z,65.54
2019-02-11T09:23:45.654Z,65.11
2019-02-11T09:26:17.177Z,64.98
2019-02-11T09:28:47.563Z,65.50
2019-02-11T09:31:18.472Z,65.53
2019-02-11T09:33:51.126Z,65.10
2019-02-11T09:36:21.772Z,65.71
2019-02-11T09:38:52.360Z,65.17
2019-02-11T09:41:23.186Z,66.39
2019-02-11T09:43:53.651Z,65.90
2019-02-11T09:46:24.151Z,65.99
2019-02-11T09:48:54.687Z,65.68
2019-02-11T09:51:27.119Z,65.25
2019-02-11T09:53:57.646Z,64.98
2019-02-11T09:56:28.248Z,65.30
2019-02-11T09:58:58.966Z,65.32
2019-02-11T10:01:29.722Z,65.59
2019-02-11T10:04:02.393Z,65.56
2019-02-11T10:06:32.927Z,66.04
2019-02-11T10:09:04.023Z,66.44
2019-02-11T10:11:35.137Z,66.02
2019-02-11T10:14:05.847Z,66.08
2019-02-11T10:16:37.446Z,66.14
2019-02-11T10:19:08.048Z,66.24
2019-02-11T10:21:39.633Z,66.96
2019-02-11T10:24:10.083Z,66.71
2019-02-11T10:26:40.733Z,66.91
2019-02-11T10:29:11.213Z,67.39
2019-02-11T10:31:41.535Z,67.14
2019-02-11T10:34:12.178Z,67.38
2019-02-11T10:36:42.994Z,67.69
2019-02-11T10:39:14.772Z,67.72
2019-02-11T10:41:45.380Z,67.93
2019-02-11T10:44:16.041Z,67.95
2019-02-11T10:46:47.213Z,68.10
2019-02-11T10:49:18.214Z,68.11
2019-02-11T10:51:48.659Z,67.72
2019-02-11T10:54:19.235Z,68.27
2019-02-11T10:56:49.868Z,68.17
2019-02-11T10:59:21.105Z,68.31
2019-02-11T11:01:53.323Z,67.89
2019-02-11T11:04:25.384Z,68.08
2019-02-11T11:06:58.301Z,68.19
2019-02-11T11:09:29.258Z,67.55
2019-02-11T11:12:00.547Z,66.94
2019-02-11T11:14:31.056Z,67.20
2019-02-11T11:17:01.997Z,65.25
2019-02-11T11:19:32.993Z,66.14
2019-02-11T11:22:03.558Z,64.86
2019-02-11T11:24:34.331Z,66.60
2019-02-11T11:27:04.712Z,66.46
2019-02-11T11:29:35.079Z,67.59
2019-02-11T11:32:06.366Z,67.14
2019-02-11T11:34:36.837Z,67.80
2019-02-11T11:37:07.564Z,68.71
2019-02-11T11:39:37.917Z,70.88
2019-02-11T11:42:08.445Z,72.47
2019-02-11T11:44:39.027Z,72.80
2019-02-11T11:47:09.587Z,72.52
2019-02-11T11:49:40.387Z,71.17
2019-02-11T11:52:11.223Z,71.75
2019-02-11T11:54:41.755Z,71.73
2019-02-11T11:57:12.541Z,72.41
2019-02-11T11:59:43.753Z,72.48
2019-02-11T12:02:16.373Z,72.98
2019-02-11T12:04:49.380Z,72.51
2019-02-11T12:07:20.755Z,72.23
2019-02-11T12:09:51.231Z,72.95
2019-02-11T12:12:24.294Z,73.72
2019-02-11T12:14:54.851Z,74.92
2019-02-11T12:17:27.117Z,77.39
2019-02-11T12:19:58.131Z,77.30
2019-02-11T12:22:28.692Z,77.36
2019-02-11T12:24:59.567Z,77.85
2019-02-11T12:27:30.240Z,78.62
2019-02-11T12:30:02.397Z,78.99
2019-02-11T12:32:32.993Z,79.53
2019-02-11T12:35:03.525Z,79.99
2019-02-11T12:37:34.266Z,80.48
2019-02-11T12:40:06.181Z,80.96
2019-02-11T12:42:36.699Z,81.36
2019-02-11T12:45:09.206Z,82.04
2019-02-11T12:47:41.687Z,82.56
2019-02-11T12:50:13.279Z,82.53
2019-02-11T12:52:43.856Z,83.15
2019-02-11T12:55:15.361Z,83.21
2019-02-11T12:57:46.123Z,83.29
2019-02-11T13:00:18.876Z,83.47
2019-02-11T13:02:49.510Z,84.34
2019-02-11T13:05:23.195Z,84.99
2019-02-11T13:07:52.843Z,86.28
2019-02-11T13:10:23.852Z,86.69
2019-02-11T13:12:54.587Z,87.86
2019-02-11T13:15:56.561Z,88.25
2019-02-11T13:18:00.862Z,88.68
2019-02-11T13:20:31.320Z,87.40
2019-02-11T13:23:03.227Z,87.35
2019-02-11T13:25:34.324Z,86.92
2019-02-11T13:28:05.283Z,86.64
2019-02-11T13:30:37.111Z,86.35
2019-02-11T13:33:08.262Z,86.55
2019-02-11T13:35:38.792Z,86.65
2019-02-11T13:38:09.648Z,86.40
2019-02-11T13:40:41.103Z,86.90
2019-02-11T13:43:11.705Z,87.85
2019-02-11T13:45:42.139Z,89.10
2019-02-11T13:48:12.842Z,89.70
2019-02-11T13:50:43.362Z,90.27
2019-02-11T13:53:13.719Z,90.43
2019-02-11T13:55:44.760Z,90.32
2019-02-11T13:58:15.236Z,89.74
2019-02-11T14:00:49.740Z,89.74
2019-02-11T14:03:20.205Z,89.41
2019-02-11T14:05:51.055Z,88.95
2019-02-11T14:08:22.093Z,88.61
2019-02-11T14:10:52.509Z,88.33
2019-02-11T14:13:24.891Z,87.90
2019-02-11T14:15:55.746Z,87.35
2019-02-11T14:18:27.480Z,87.27
2019-02-11T14:20:58.277Z,86.55
2019-02-11T14:23:28.681Z,86.52
2019-02-11T14:25:59.779Z,86.05
2019-02-11T14:28:30.216Z,85.63
2019-02-11T14:31:00.947Z,85.89
2019-02-11T14:33:31.504Z,85.96
2019-02-11T14:36:05.488Z,85.70
2019-02-11T14:38:35.345Z,86.15
2019-02-11T14:41:06.280Z,86.02
2019-02-11T14:43:37.026Z,85.79
2019-02-11T14:46:07.442Z,85.73
2019-02-11T14:48:38.422Z,85.67
2019-02-11T14:51:09.479Z,85.67
2019-02-11T14:53:40.060Z,85.50
2019-02-11T14:56:11.690Z,85.09
2019-02-11T14:58:42.477Z,85.09
2019-02-11T15:01:13.035Z,85.52
2019-02-11T15:03:43.589Z,85.24
2019-02-11T15:06:15.117Z,85.19
2019-02-11T15:08:47.211Z,85.79
2019-02-11T15:11:18.766Z,86.43
2019-02-11T15:13:49.274Z,86.91
2019-02-11T15:16:19.842Z,87.50
2019-02-11T15:18:52.206Z,88.20
2019-02-11T15:21:22.614Z,88.75
2019-02-11T15:23:53.078Z,88.67
2019-02-11T15:26:23.594Z,88.88
2019-02-11T15:28:54.260Z,88.93
2019-02-11T15:31:24.717Z,88.74
2019-02-11T15:33:55.118Z,88.15
2019-02-11T15:36:25.656Z,87.71
2019-02-11T15:38:56.020Z,87.39
2019-02-11T15:41:26.399Z,87.40
2019-02-11T15:43:56.851Z,87.37
2019-02-11T15:46:27.254Z,87.06
2019-02-11T15:48:57.712Z,86.73
2019-02-11T15:51:28.158Z,86.95
2019-02-11T15:53:58.664Z,86.42
2019-02-11T15:56:29.015Z,86.49
2019-02-11T15:58:59.503Z,87.35
2019-02-11T16:01:30.076Z,87.83
2019-02-11T16:04:00.480Z,87.97
2019-02-11T16:06:38.188Z,88.01
2019-02-11T16:09:06.960Z,87.77
2019-02-11T16:11:37.394Z,87.21
2019-02-11T16:14:08.030Z,87.38
2019-02-11T16:16:39.703Z,87.16
2019-02-11T16:19:10.159Z,86.80
2019-02-11T16:21:42.056Z,86.49
2019-02-11T16:24:12.753Z,86.69
2019-02-11T16:26:43.196Z,86.57
2019-02-11T16:29:14.314Z,86.07
2019-02-11T16:31:45.088Z,86.25
2019-02-11T16:34:16.301Z,86.77
2019-02-11T16:36:47.077Z,87.23
2019-02-11T16:39:18.508Z,87.54
2019-02-11T16:41:49.485Z,87.58
2019-02-11T16:44:21.638Z,87.23
2019-02-11T16:46:52.695Z,86.99
2019-02-11T16:49:23.140Z,86.13
2019-02-11T16:51:53.925Z,85.79
2019-02-11T16:54:24.339Z,85.30
2019-02-11T16:56:56.483Z,85.33
2019-02-11T16:59:26.959Z,84.81
2019-02-11T17:01:57.304Z,84.62
2019-02-11T17:04:27.666Z,84.29
2019-02-11T17:06:58.361Z,85.00
2019-02-11T17:09:29.216Z,85.37
2019-02-11T17:11:59.773Z,84.60
2019-02-11T17:14:30.154Z,85.42
2019-02-11T17:17:00.964Z,85.64
2019-02-11T17:19:31.717Z,85.35
2019-02-11T17:22:03.225Z,83.14
2019-02-11T17:24:33.815Z,82.10
2019-02-11T17:27:04.170Z,82.85
2019-02-11T17:29:34.596Z,83.22
2019-02-11T17:32:06.502Z,83.27
2019-02-11T17:34:38.919Z,85.50
2019-02-11T17:37:09.471Z,85.92
2019-02-11T17:39:40.168Z,85.03
2019-02-11T17:42:12.665Z,85.66
2019-02-11T17:44:43.270Z,85.08
2019-02-11T17:47:13.663Z,84.71
2019-02-11T17:49:45.622Z,84.74
2019-02-11T17:52:16.310Z,84.34
2019-02-11T17:54:46.912Z,84.39
2019-02-11T17:57:17.259Z,83.70
2019-02-11T17:59:48.637Z,82.99
2019-02-11T18:02:19.253Z,82.68
2019-02-11T18:04:49.708Z,82.76
2019-02-11T18:07:20.188Z,82.88
2019-02-11T18:09:50.544Z,82.72
2019-02-11T18:12:21.343Z,83.16
2019-02-11T18:14:51.872Z,83.88
2019-02-11T18:17:22.385Z,84.22
2019-02-11T18:19:52.944Z,84.57
2019-02-11T18:22:23.412Z,84.96
2019-02-11T18:24:53.750Z,85.20
2019-02-11T18:27:25.670Z,85.60
2019-02-11T18:29:56.504Z,85.87
2019-02-11T18:32:28.467Z,85.53
2019-02-11T18:34:59.843Z,85.42
2019-02-11T18:37:30.303Z,85.50
2019-02-11T18:40:01.671Z,84.89
2019-02-11T18:42:32.272Z,85.28
2019-02-11T18:45:02.678Z,85.68
2019-02-11T18:47:34.368Z,85.86
2019-02-11T18:50:06.417Z,86.24
2019-02-11T18:52:36.759Z,85.87
2019-02-11T18:55:09.233Z,85.83
2019-02-11T18:57:39.640Z,85.70
2019-02-11T19:00:12.949Z,85.66
2019-02-11T19:02:43.343Z,85.67
2019-02-11T19:05:13.658Z,85.13
2019-02-11T19:07:44.146Z,85.09
2019-02-11T19:10:15.874Z,85.02
2019-02-11T19:12:46.262Z,84.92
2019-02-11T19:15:16.700Z,84.84
2019-02-11T19:17:47.071Z,84.40
2019-02-11T19:20:17.507Z,84.32
2019-02-11T19:22:47.849Z,84.11
2019-02-11T19:25:18.210Z,83.97
2019-02-11T19:27:48.901Z,84.07
2019-02-11T19:30:21.317Z,83.92
2019-02-11T19:32:51.652Z,83.30
2019-02-11T19:35:22.190Z,83.20
2019-02-11T19:37:52.615Z,83.00
2019-02-11T19:40:23.092Z,82.87
2019-02-11T19:42:53.417Z,83.03
2019-02-11T19:45:23.795Z,82.86
2019-02-11T19:47:54.168Z,82.75
2019-02-11T19:50:24.652Z,82.41
2019-02-11T19:52:56.246Z,82.34
2019-02-11T19:55:26.767Z,82.50
2019-02-11T19:57:57.359Z,82.41
2019-02-11T20:00:28.017Z,82.34
2019-02-11T20:02:58.545Z,80.96
2019-02-11T20:05:29.007Z,81.69
2019-02-11T20:08:00.421Z,82.21
2019-02-11T20:10:31.005Z,82.75
2019-02-11T20:13:01.532Z,82.53
2019-02-11T20:15:32.140Z,82.74
2019-02-11T20:18:02.842Z,81.99
2019-02-11T20:20:33.237Z,82.32
2019-02-11T20:23:03.793Z,82.10
2019-02-11T20:25:34.445Z,81.63
2019-02-11T20:28:04.966Z,80.88
2019-02-11T20:30:35.652Z,80.64
2019-02-11T20:33:05.991Z,80.46
2019-02-11T20:35:36.450Z,80.44
2019-02-11T20:38:06.872Z,80.28
2019-02-11T20:40:37.429Z,78.93
2019-02-11T20:43:08.381Z,78.76
2019-02-11T20:45:40.018Z,78.34
2019-02-11T20:48:10.385Z,78.69
2019-02-11T20:50:40.848Z,78.47
2019-02-11T20:53:11.197Z,79.92
2019-02-11T20:55:42.589Z,78.65
2019-02-11T20:58:13.035Z,78.78
2019-02-11T21:00:43.454Z,79.10
2019-02-11T21:03:13.807Z,79.16
2019-02-11T21:05:44.537Z,79.40
2019-02-11T21:08:15.240Z,79.69
2019-02-11T21:10:45.765Z,79.71
2019-02-11T21:13:16.278Z,80.16
2019-02-11T21:15:47.266Z,79.88
2019-02-11T21:18:17.631Z,79.93
2019-02-11T21:20:48.179Z,79.55
2019-02-11T21:23:18.793Z,79.61
2019-02-11T21:25:49.151Z,79.51
2019-02-11T21:28:19.616Z,79.18
2019-02-11T21:30:49.982Z,79.67
2019-02-11T21:33:20.396Z,79.39
2019-02-11T21:35:51.739Z,79.41
2019-02-11T21:38:22.314Z,79.26
2019-02-11T21:40:52.835Z,79.48
2019-02-11T21:43:23.281Z,79.40
2019-02-11T21:45:53.745Z,79.36
2019-02-11T21:48:24.108Z,79.08
2019-02-11T21:50:54.871Z,78.97
2019-02-11T21:53:25.435Z,78.63
2019-02-11T21:55:56.075Z,78.50
2019-02-11T21:58:26.518Z,78.07
2019-02-11T22:01:02.391Z,77.65
2019-02-11T22:03:30.352Z,78.04
2019-02-11T22:06:00.968Z,77.52
2019-02-11T22:08:31.374Z,76.90
2019-02-11T22:11:01.770Z,76.20
2019-02-11T22:13:32.162Z,76.40
2019-02-11T22:16:02.685Z,76.75
2019-02-11T22:18:33.211Z,76.97
2019-02-11T22:21:04.071Z,76.38
2019-02-11T22:23:34.989Z,76.29
2019-02-11T22:26:06.097Z,75.91
2019-02-11T22:28:36.825Z,75.97
2019-02-11T22:31:07.323Z,76.29
2019-02-11T22:33:37.838Z,76.63
2019-02-11T22:36:09.808Z,76.82
2019-02-11T22:38:42.426Z,77.11
2019-02-11T22:41:15.132Z,77.09
2019-02-11T22:43:47.065Z,77.02
2019-02-11T22:46:17.473Z,77.02
2019-02-11T22:48:49.331Z,77.05
2019-02-11T22:51:20.113Z,77.04
2019-02-11T22:53:50.431Z,77.20
2019-02-11T22:56:21.584Z,76.98
2019-02-11T22:58:52.463Z,77.15
2019-02-11T23:01:23.181Z,77.32
2019-02-11T23:03:53.917Z,77.83
2019-02-11T23:06:24.373Z,78.27
2019-02-11T23:08:54.798Z,79.31
2019-02-11T23:11:25.342Z,80.01
2019-02-11T23:13:55.872Z,80.83
2019-02-11T23:16:26.226Z,81.39
2019-02-11T23:18:56.595Z,81.75
2019-02-11T23:21:28.799Z,81.85
2019-02-11T23:23:59.425Z,81.83
2019-02-11T23:26:30.346Z,81.96
2019-02-11T23:29:01.014Z,81.95
2019-02-11T23:31:31.406Z,82.07
2019-02-11T23:34:02.014Z,82.38
2019-02-11T23:36:32.655Z,82.71
2019-02-11T23:39:04.574Z,83.15
2019-02-11T23:41:35.169Z,83.41
2019-02-11T23:44:06.158Z,83.78
2019-02-11T23:46:36.580Z,84.25
2019-02-11T23:49:07.184Z,84.80
2019-02-11T23:51:41.141Z,85.13
2019-02-11T23:54:12.911Z,85.27
2019-02-11T23:56:43.356Z,85.85
2019-02-11T23:59:14.040Z,86.14
